sensor_id;sensor_type;location;lat;lon;timestamp;temperature;humidity
12039;DHT22;6080;48.818;9.526;2022-10-16T00:02:25;14.90;99.90
12039;DHT22;6080;48.818;9.526;2022-10-16T00:04:50;14.90;99.90
12039;DHT22;6080;48.818;9.526;2022-10-16T00:07:16;14.90;99.90
12039;DHT22;6080;48.818;9.526;2022-10-16T00:09:42;14.90;99.90
12039;DHT22;6080;48.818;9.526;2022-10-16T00:12:08;14.90;99.90
12039;DHT22;6080;48.818;9.526;2022-10-16T00:14:33;14.90;99.90
12039;DHT22;6080;48.818;9.526;2022-10-16T00:16:59;14.90;99.90
12039;DHT22;6080;48.818;9.526;2022-10-16T00:19:25;14.90;99.90
12039;DHT22;6080;48.818;9.526;2022-10-16T00:21:51;14.90;99.90
12039;DHT22;6080;48.818;9.526;2022-10-16T00:24:17;14.90;99.90
12039;DHT22;6080;48.818;9.526;2022-10-16T00:26:42;14.80;99.90
12039;DHT22;6080;48.818;9.526;2022-10-16T00:29:09;14.80;99.90
12039;DHT22;6080;48.818;9.526;2022-10-16T00:31:35;14.80;99.90
12039;DHT22;6080;48.818;9.526;2022-10-16T00:34:01;14.80;99.90
12039;DHT22;6080;48.818;9.526;2022-10-16T00:36:27;14.80;99.90
12039;DHT22;6080;48.818;9.526;2022-10-16T00:38:55;14.70;99.90
12039;DHT22;6080;48.818;9.526;2022-10-16T00:41:22;14.70;99.90
12039;DHT22;6080;48.818;9.526;2022-10-16T00:44:03;14.80;99.90
12039;DHT22;6080;48.818;9.526;2022-10-16T00:46:35;14.70;99.90
12039;DHT22;6080;48.818;9.526;2022-10-16T00:49:09;14.70;99.90
12039;DHT22;6080;48.818;9.526;2022-10-16T00:51:47;14.70;99.90
12039;DHT22;6080;48.818;9.526;2022-10-16T00:54:24;14.60;99.90
12039;DHT22;6080;48.818;9.526;2022-10-16T00:56:51;14.60;99.90
12039;DHT22;6080;48.818;9.526;2022-10-16T00:59:23;14.60;99.90
12039;DHT22;6080;48.818;9.526;2022-10-16T01:01:51;14.60;99.90
12039;DHT22;6080;48.818;9.526;2022-10-16T01:04:17;14.60;99.90
12039;DHT22;6080;48.818;9.526;2022-10-16T01:12:22;14.50;99.90
12039;DHT22;6080;48.818;9.526;2022-10-16T01:14:59;14.50;99.90
12039;DHT22;6080;48.818;9.526;2022-10-16T01:22:37;14.40;99.90
12039;DHT22;6080;48.818;9.526;2022-10-16T01:25:09;14.40;99.90
12039;DHT22;6080;48.818;9.526;2022-10-16T01:27:40;14.40;99.90
12039;DHT22;6080;48.818;9.526;2022-10-16T01:30:15;14.40;99.90
12039;DHT22;6080;48.818;9.526;2022-10-16T01:33:02;14.40;99.90
12039;DHT22;6080;48.818;9.526;2022-10-16T01:35:37;14.40;99.90
12039;DHT22;6080;48.818;9.526;2022-10-16T01:38:11;14.40;99.90
12039;DHT22;6080;48.818;9.526;2022-10-16T01:40:41;14.40;99.90
12039;DHT22;6080;48.818;9.526;2022-10-16T01:43:17;14.40;99.90
12039;DHT22;6080;48.818;9.526;2022-10-16T01:45:45;14.30;99.90
12039;DHT22;6080;48.818;9.526;2022-10-16T01:48:17;14.30;99.90
12039;DHT22;6080;48.818;9.526;2022-10-16T01:50:52;14.40;99.90
12039;DHT22;6080;48.818;9.526;2022-10-16T01:53:20;14.30;99.90
12039;DHT22;6080;48.818;9.526;2022-10-16T01:55:48;14.30;99.90
12039;DHT22;6080;48.818;9.526;2022-10-16T01:58:15;14.30;99.90
12039;DHT22;6080;48.818;9.526;2022-10-16T02:00:44;14.40;99.90
12039;DHT22;6080;48.818;9.526;2022-10-16T02:03:13;14.40;99.90
12039;DHT22;6080;48.818;9.526;2022-10-16T02:05:41;14.30;99.90
12039;DHT22;6080;48.818;9.526;2022-10-16T02:08:08;14.30;99.90
12039;DHT22;6080;48.818;9.526;2022-10-16T02:10:35;14.30;99.90
12039;DHT22;6080;48.818;9.526;2022-10-16T02:15:35;14.30;99.90
12039;DHT22;6080;48.818;9.526;2022-10-16T02:18:03;14.30;99.90
12039;DHT22;6080;48.818;9.526;2022-10-16T02:20:32;14.30;99.90
12039;DHT22;6080;48.818;9.526;2022-10-16T02:23:01;14.30;99.90
12039;DHT22;6080;48.818;9.526;2022-10-16T02:25:38;14.30;99.90
12039;DHT22;6080;48.818;9.526;2022-10-16T02:28:12;14.30;99.90
12039;DHT22;6080;48.818;9.526;2022-10-16T02:30:54;14.30;99.90
12039;DHT22;6080;48.818;9.526;2022-10-16T02:33:23;14.30;99.90
12039;DHT22;6080;48.818;9.526;2022-10-16T02:35:51;14.30;99.90
12039;DHT22;6080;48.818;9.526;2022-10-16T02:38:18;14.30;99.90
12039;DHT22;6080;48.818;9.526;2022-10-16T02:40:44;14.30;99.90
12039;DHT22;6080;48.818;9.526;2022-10-16T02:43:10;14.30;99.90
12039;DHT22;6080;48.818;9.526;2022-10-16T02:45:37;14.30;99.90
12039;DHT22;6080;48.818;9.526;2022-10-16T02:48:03;14.40;99.90
12039;DHT22;6080;48.818;9.526;2022-10-16T02:50:29;14.30;99.90
12039;DHT22;6080;48.818;9.526;2022-10-16T02:52:55;14.40;99.90
12039;DHT22;6080;48.818;9.526;2022-10-16T02:55:21;14.40;99.90
12039;DHT22;6080;48.818;9.526;2022-10-16T02:57:46;14.40;99.90
12039;DHT22;6080;48.818;9.526;2022-10-16T03:00:15;14.40;99.90
12039;DHT22;6080;48.818;9.526;2022-10-16T03:02:41;14.40;99.90
12039;DHT22;6080;48.818;9.526;2022-10-16T03:05:08;14.40;99.90
12039;DHT22;6080;48.818;9.526;2022-10-16T03:07:34;14.40;99.90
12039;DHT22;6080;48.818;9.526;2022-10-16T03:09:59;14.40;99.90
12039;DHT22;6080;48.818;9.526;2022-10-16T03:12:26;14.40;99.90
12039;DHT22;6080;48.818;9.526;2022-10-16T03:14:52;14.40;99.90
12039;DHT22;6080;48.818;9.526;2022-10-16T03:17:18;14.40;99.90
12039;DHT22;6080;48.818;9.526;2022-10-16T03:19:44;14.30;99.90
12039;DHT22;6080;48.818;9.526;2022-10-16T03:22:10;14.30;99.90
12039;DHT22;6080;48.818;9.526;2022-10-16T03:24:36;14.30;99.90
12039;DHT22;6080;48.818;9.526;2022-10-16T03:27:01;14.30;99.90
12039;DHT22;6080;48.818;9.526;2022-10-16T03:29:27;14.30;99.90
12039;DHT22;6080;48.818;9.526;2022-10-16T03:31:55;14.20;99.90
12039;DHT22;6080;48.818;9.526;2022-10-16T03:34:21;14.20;99.90
12039;DHT22;6080;48.818;9.526;2022-10-16T03:36:47;14.20;99.90
12039;DHT22;6080;48.818;9.526;2022-10-16T03:39:13;14.20;99.90
12039;DHT22;6080;48.818;9.526;2022-10-16T03:41:39;14.20;99.90
12039;DHT22;6080;48.818;9.526;2022-10-16T03:44:05;14.20;99.90
12039;DHT22;6080;48.818;9.526;2022-10-16T03:46:31;14.20;99.90
12039;DHT22;6080;48.818;9.526;2022-10-16T03:48:57;14.10;99.90
12039;DHT22;6080;48.818;9.526;2022-10-16T03:51:23;14.20;99.90
12039;DHT22;6080;48.818;9.526;2022-10-16T03:53:48;14.10;99.90
12039;DHT22;6080;48.818;9.526;2022-10-16T03:56:14;14.10;99.90
12039;DHT22;6080;48.818;9.526;2022-10-16T03:58:40;14.10;99.90
12039;DHT22;6080;48.818;9.526;2022-10-16T04:01:06;14.10;99.90
12039;DHT22;6080;48.818;9.526;2022-10-16T04:03:31;14.10;99.90
12039;DHT22;6080;48.818;9.526;2022-10-16T04:05:57;14.00;99.90
12039;DHT22;6080;48.818;9.526;2022-10-16T04:08:23;14.00;99.90
12039;DHT22;6080;48.818;9.526;2022-10-16T04:10:49;14.00;99.90
12039;DHT22;6080;48.818;9.526;2022-10-16T04:13:15;13.90;99.90
12039;DHT22;6080;48.818;9.526;2022-10-16T04:15:41;13.90;99.90
12039;DHT22;6080;48.818;9.526;2022-10-16T04:18:07;13.90;99.90
12039;DHT22;6080;48.818;9.526;2022-10-16T04:20:33;13.80;99.90
12039;DHT22;6080;48.818;9.526;2022-10-16T04:22:59;13.80;99.90
12039;DHT22;6080;48.818;9.526;2022-10-16T04:25:25;13.80;99.90
12039;DHT22;6080;48.818;9.526;2022-10-16T04:27:53;13.80;99.90
12039;DHT22;6080;48.818;9.526;2022-10-16T04:30:19;13.80;99.90
12039;DHT22;6080;48.818;9.526;2022-10-16T04:32:48;13.80;99.90
12039;DHT22;6080;48.818;9.526;2022-10-16T04:35:15;13.80;99.90
12039;DHT22;6080;48.818;9.526;2022-10-16T04:37:41;13.80;99.90
12039;DHT22;6080;48.818;9.526;2022-10-16T04:40:07;13.80;99.90
12039;DHT22;6080;48.818;9.526;2022-10-16T04:42:33;13.80;99.90
12039;DHT22;6080;48.818;9.526;2022-10-16T04:44:58;13.80;99.90
12039;DHT22;6080;48.818;9.526;2022-10-16T04:47:24;13.80;99.90
12039;DHT22;6080;48.818;9.526;2022-10-16T04:49:50;13.80;99.90
12039;DHT22;6080;48.818;9.526;2022-10-16T04:52:16;13.80;99.90
12039;DHT22;6080;48.818;9.526;2022-10-16T04:54:42;13.80;99.90
12039;DHT22;6080;48.818;9.526;2022-10-16T04:57:10;13.80;99.90
12039;DHT22;6080;48.818;9.526;2022-10-16T04:59:36;13.80;99.90
12039;DHT22;6080;48.818;9.526;2022-10-16T05:02:02;13.70;99.90
12039;DHT22;6080;48.818;9.526;2022-10-16T05:04:28;13.70;99.90
12039;DHT22;6080;48.818;9.526;2022-10-16T05:06:54;13.70;99.90
12039;DHT22;6080;48.818;9.526;2022-10-16T05:09:20;13.70;99.90
12039;DHT22;6080;48.818;9.526;2022-10-16T05:11:46;13.60;99.90
12039;DHT22;6080;48.818;9.526;2022-10-16T05:14:12;13.60;99.90
12039;DHT22;6080;48.818;9.526;2022-10-16T05:16:38;13.60;99.90
12039;DHT22;6080;48.818;9.526;2022-10-16T05:19:03;13.70;99.90
12039;DHT22;6080;48.818;9.526;2022-10-16T05:21:29;13.70;99.90
12039;DHT22;6080;48.818;9.526;2022-10-16T05:23:55;13.70;99.90
12039;DHT22;6080;48.818;9.526;2022-10-16T05:26:21;13.70;99.90
12039;DHT22;6080;48.818;9.526;2022-10-16T05:28:47;13.70;99.90
12039;DHT22;6080;48.818;9.526;2022-10-16T05:31:12;13.70;99.90
12039;DHT22;6080;48.818;9.526;2022-10-16T05:33:38;13.70;99.90
12039;DHT22;6080;48.818;9.526;2022-10-16T05:36:06;13.80;99.90
12039;DHT22;6080;48.818;9.526;2022-10-16T05:38:34;13.80;99.90
12039;DHT22;6080;48.818;9.526;2022-10-16T05:40:59;13.80;99.90
12039;DHT22;6080;48.818;9.526;2022-10-16T05:43:27;13.70;99.90
12039;DHT22;6080;48.818;9.526;2022-10-16T05:45:54;13.70;99.90
12039;DHT22;6080;48.818;9.526;2022-10-16T05:48:20;13.70;99.90
12039;DHT22;6080;48.818;9.526;2022-10-16T05:50:46;13.70;99.90
12039;DHT22;6080;48.818;9.526;2022-10-16T05:53:12;13.70;99.90
12039;DHT22;6080;48.818;9.526;2022-10-16T05:55:37;13.70;99.90
12039;DHT22;6080;48.818;9.526;2022-10-16T05:58:03;13.60;99.90
12039;DHT22;6080;48.818;9.526;2022-10-16T06:00:29;13.60;99.90
12039;DHT22;6080;48.818;9.526;2022-10-16T06:02:55;13.60;99.90
12039;DHT22;6080;48.818;9.526;2022-10-16T06:05:20;13.60;99.90
12039;DHT22;6080;48.818;9.526;2022-10-16T06:07:46;13.70;99.90
12039;DHT22;6080;48.818;9.526;2022-10-16T06:10:12;13.70;99.90
12039;DHT22;6080;48.818;9.526;2022-10-16T06:12:38;13.80;99.90
12039;DHT22;6080;48.818;9.526;2022-10-16T06:15:04;13.80;99.90
12039;DHT22;6080;48.818;9.526;2022-10-16T06:17:30;13.90;99.90
12039;DHT22;6080;48.818;9.526;2022-10-16T06:19:55;13.90;99.90
12039;DHT22;6080;48.818;9.526;2022-10-16T06:22:21;13.90;99.90
12039;DHT22;6080;48.818;9.526;2022-10-16T06:24:47;14.00;99.90
12039;DHT22;6080;48.818;9.526;2022-10-16T06:27:13;13.90;99.90
12039;DHT22;6080;48.818;9.526;2022-10-16T06:29:38;14.00;99.90
12039;DHT22;6080;48.818;9.526;2022-10-16T06:32:04;14.00;99.90
12039;DHT22;6080;48.818;9.526;2022-10-16T06:34:32;14.10;99.90
12039;DHT22;6080;48.818;9.526;2022-10-16T06:36:57;14.20;99.90
12039;DHT22;6080;48.818;9.526;2022-10-16T06:39:23;14.20;99.90
12039;DHT22;6080;48.818;9.526;2022-10-16T06:41:49;14.20;99.90
12039;DHT22;6080;48.818;9.526;2022-10-16T06:44:15;14.30;99.90
12039;DHT22;6080;48.818;9.526;2022-10-16T06:46:40;14.30;99.90
12039;DHT22;6080;48.818;9.526;2022-10-16T06:49:06;14.40;99.90
12039;DHT22;6080;48.818;9.526;2022-10-16T06:51:32;14.50;99.90
12039;DHT22;6080;48.818;9.526;2022-10-16T06:54:00;14.60;99.90
12039;DHT22;6080;48.818;9.526;2022-10-16T06:56:27;14.80;99.90
12039;DHT22;6080;48.818;9.526;2022-10-16T06:58:53;14.90;99.90
12039;DHT22;6080;48.818;9.526;2022-10-16T07:01:22;15.00;99.90
12039;DHT22;6080;48.818;9.526;2022-10-16T07:03:49;15.10;99.90
12039;DHT22;6080;48.818;9.526;2022-10-16T07:06:17;15.30;99.90
12039;DHT22;6080;48.818;9.526;2022-10-16T07:08:45;15.60;99.90
12039;DHT22;6080;48.818;9.526;2022-10-16T07:11:13;15.80;99.90
12039;DHT22;6080;48.818;9.526;2022-10-16T07:13:41;16.00;99.90
12039;DHT22;6080;48.818;9.526;2022-10-16T07:16:19;16.00;99.90
12039;DHT22;6080;48.818;9.526;2022-10-16T07:18:46;16.10;99.90
12039;DHT22;6080;48.818;9.526;2022-10-16T07:21:21;16.00;99.90
12039;DHT22;6080;48.818;9.526;2022-10-16T07:23:54;15.90;99.90
12039;DHT22;6080;48.818;9.526;2022-10-16T07:26:20;15.80;99.90
12039;DHT22;6080;48.818;9.526;2022-10-16T07:28:46;15.80;99.90
12039;DHT22;6080;48.818;9.526;2022-10-16T07:31:14;15.80;99.90
12039;DHT22;6080;48.818;9.526;2022-10-16T07:33:41;15.80;99.90
12039;DHT22;6080;48.818;9.526;2022-10-16T07:36:11;15.80;99.90
12039;DHT22;6080;48.818;9.526;2022-10-16T07:38:37;15.90;99.90
12039;DHT22;6080;48.818;9.526;2022-10-16T07:41:09;16.00;99.90
12039;DHT22;6080;48.818;9.526;2022-10-16T07:43:36;16.00;99.90
12039;DHT22;6080;48.818;9.526;2022-10-16T07:46:02;16.10;99.90
12039;DHT22;6080;48.818;9.526;2022-10-16T07:48:30;16.10;99.90
12039;DHT22;6080;48.818;9.526;2022-10-16T07:51:02;16.00;99.90
12039;DHT22;6080;48.818;9.526;2022-10-16T07:53:28;15.90;99.90
12039;DHT22;6080;48.818;9.526;2022-10-16T07:56:02;15.90;99.90
12039;DHT22;6080;48.818;9.526;2022-10-16T07:58:28;15.90;99.90
12039;DHT22;6080;48.818;9.526;2022-10-16T08:00:55;15.90;99.90
12039;DHT22;6080;48.818;9.526;2022-10-16T08:03:21;15.90;99.90
12039;DHT22;6080;48.818;9.526;2022-10-16T08:05:47;15.90;99.90
12039;DHT22;6080;48.818;9.526;2022-10-16T08:08:15;16.00;99.90
12039;DHT22;6080;48.818;9.526;2022-10-16T08:10:41;16.10;99.90
12039;DHT22;6080;48.818;9.526;2022-10-16T08:13:07;16.20;99.90
12039;DHT22;6080;48.818;9.526;2022-10-16T08:15:33;16.30;99.90
12039;DHT22;6080;48.818;9.526;2022-10-16T08:18:01;16.40;99.90
12039;DHT22;6080;48.818;9.526;2022-10-16T08:20:27;16.50;99.90
12039;DHT22;6080;48.818;9.526;2022-10-16T08:22:53;16.50;99.90
12039;DHT22;6080;48.818;9.526;2022-10-16T08:25:20;16.60;99.90
12039;DHT22;6080;48.818;9.526;2022-10-16T08:27:46;16.60;99.90
12039;DHT22;6080;48.818;9.526;2022-10-16T08:30:13;16.80;99.90
12039;DHT22;6080;48.818;9.526;2022-10-16T08:32:39;16.90;99.90
12039;DHT22;6080;48.818;9.526;2022-10-16T08:35:05;17.10;99.90
12039;DHT22;6080;48.818;9.526;2022-10-16T08:37:32;17.30;99.90
12039;DHT22;6080;48.818;9.526;2022-10-16T08:39:58;17.50;99.90
12039;DHT22;6080;48.818;9.526;2022-10-16T08:42:56;17.60;99.90
12039;DHT22;6080;48.818;9.526;2022-10-16T08:46:11;17.70;99.90
12039;DHT22;6080;48.818;9.526;2022-10-16T08:50:52;18.70;99.90
12039;DHT22;6080;48.818;9.526;2022-10-16T08:53:31;19.00;99.90
12039;DHT22;6080;48.818;9.526;2022-10-16T08:55:59;19.20;99.90
12039;DHT22;6080;48.818;9.526;2022-10-16T08:58:29;19.30;99.90
12039;DHT22;6080;48.818;9.526;2022-10-16T09:00:58;19.30;99.90
12039;DHT22;6080;48.818;9.526;2022-10-16T09:03:28;19.30;99.90
12039;DHT22;6080;48.818;9.526;2022-10-16T09:06:00;19.30;99.90
12039;DHT22;6080;48.818;9.526;2022-10-16T09:08:46;19.40;99.90
12039;DHT22;6080;48.818;9.526;2022-10-16T09:14:15;19.50;99.90
12039;DHT22;6080;48.818;9.526;2022-10-16T09:16:54;19.50;99.90
12039;DHT22;6080;48.818;9.526;2022-10-16T09:19:27;19.30;99.90
12039;DHT22;6080;48.818;9.526;2022-10-16T09:21:57;19.10;99.90
12039;DHT22;6080;48.818;9.526;2022-10-16T09:24:25;19.00;99.90
12039;DHT22;6080;48.818;9.526;2022-10-16T09:26:51;19.20;99.90
12039;DHT22;6080;48.818;9.526;2022-10-16T09:29:20;19.40;99.90
12039;DHT22;6080;48.818;9.526;2022-10-16T09:31:47;19.70;99.90
12039;DHT22;6080;48.818;9.526;2022-10-16T09:34:36;19.90;99.90
12039;DHT22;6080;48.818;9.526;2022-10-16T09:37:09;19.90;99.90
12039;DHT22;6080;48.818;9.526;2022-10-16T09:39:50;20.10;99.90
12039;DHT22;6080;48.818;9.526;2022-10-16T09:42:21;20.40;99.90
12039;DHT22;6080;48.818;9.526;2022-10-16T09:44:52;20.80;99.90
12039;DHT22;6080;48.818;9.526;2022-10-16T09:47:23;21.40;99.90
12039;DHT22;6080;48.818;9.526;2022-10-16T09:49:55;21.40;99.90
12039;DHT22;6080;48.818;9.526;2022-10-16T09:52:24;21.30;99.90
12039;DHT22;6080;48.818;9.526;2022-10-16T09:55:00;21.40;99.90
12039;DHT22;6080;48.818;9.526;2022-10-16T09:57:27;21.40;99.90
12039;DHT22;6080;48.818;9.526;2022-10-16T09:59:54;21.60;99.90
12039;DHT22;6080;48.818;9.526;2022-10-16T10:02:30;21.90;99.90
12039;DHT22;6080;48.818;9.526;2022-10-16T10:04:56;22.40;99.90
12039;DHT22;6080;48.818;9.526;2022-10-16T10:07:33;22.60;99.90
12039;DHT22;6080;48.818;9.526;2022-10-16T10:10:03;23.00;99.90
12039;DHT22;6080;48.818;9.526;2022-10-16T10:12:31;24.30;99.90
12039;DHT22;6080;48.818;9.526;2022-10-16T10:15:10;25.00;99.90
12039;DHT22;6080;48.818;9.526;2022-10-16T10:17:52;25.70;99.90
12039;DHT22;6080;48.818;9.526;2022-10-16T10:20:33;25.80;99.90
12039;DHT22;6080;48.818;9.526;2022-10-16T10:23:00;26.00;99.90
12039;DHT22;6080;48.818;9.526;2022-10-16T10:36:37;27.40;99.90
12039;DHT22;6080;48.818;9.526;2022-10-16T10:50:22;28.70;99.90
12039;DHT22;6080;48.818;9.526;2022-10-16T10:59:00;29.80;99.90
12039;DHT22;6080;48.818;9.526;2022-10-16T11:01:48;30.40;99.90
12039;DHT22;6080;48.818;9.526;2022-10-16T11:07:17;31.80;97.60
12039;DHT22;6080;48.818;9.526;2022-10-16T11:09:47;31.70;96.20
12039;DHT22;6080;48.818;9.526;2022-10-16T11:12:38;31.10;96.60
12039;DHT22;6080;48.818;9.526;2022-10-16T11:17:43;31.50;96.00
12039;DHT22;6080;48.818;9.526;2022-10-16T11:20:24;31.90;94.60
12039;DHT22;6080;48.818;9.526;2022-10-16T11:22:55;30.80;97.20
12039;DHT22;6080;48.818;9.526;2022-10-16T11:25:25;30.80;97.50
12039;DHT22;6080;48.818;9.526;2022-10-16T11:30:30;31.30;97.40
12039;DHT22;6080;48.818;9.526;2022-10-16T11:35:51;31.30;95.30
12039;DHT22;6080;48.818;9.526;2022-10-16T11:38:26;31.50;95.70
12039;DHT22;6080;48.818;9.526;2022-10-16T11:40:58;31.20;94.80
12039;DHT22;6080;48.818;9.526;2022-10-16T11:43:37;31.00;94.40
12039;DHT22;6080;48.818;9.526;2022-10-16T11:46:15;31.10;94.00
12039;DHT22;6080;48.818;9.526;2022-10-16T11:48:48;32.10;91.80
12039;DHT22;6080;48.818;9.526;2022-10-16T11:54:26;30.20;92.50
12039;DHT22;6080;48.818;9.526;2022-10-16T11:56:57;30.00;93.30
12039;DHT22;6080;48.818;9.526;2022-10-16T12:00:08;31.10;92.60
12039;DHT22;6080;48.818;9.526;2022-10-16T12:08:13;33.30;86.80
12039;DHT22;6080;48.818;9.526;2022-10-16T12:10:45;34.30;86.20
12039;DHT22;6080;48.818;9.526;2022-10-16T12:18:43;33.50;83.90
12039;DHT22;6080;48.818;9.526;2022-10-16T12:21:11;33.30;85.20
12039;DHT22;6080;48.818;9.526;2022-10-16T12:23:49;32.50;86.80
12039;DHT22;6080;48.818;9.526;2022-10-16T12:26:25;32.00;85.00
12039;DHT22;6080;48.818;9.526;2022-10-16T12:28:51;32.70;82.60
12039;DHT22;6080;48.818;9.526;2022-10-16T12:31:17;33.50;84.60
12039;DHT22;6080;48.818;9.526;2022-10-16T12:33:57;34.20;80.60
12039;DHT22;6080;48.818;9.526;2022-10-16T12:36:32;34.80;77.10
12039;DHT22;6080;48.818;9.526;2022-10-16T12:38:59;35.50;75.60
12039;DHT22;6080;48.818;9.526;2022-10-16T12:41:28;34.70;73.20
12039;DHT22;6080;48.818;9.526;2022-10-16T12:43:55;34.50;74.20
12039;DHT22;6080;48.818;9.526;2022-10-16T12:46:41;34.50;75.20
12039;DHT22;6080;48.818;9.526;2022-10-16T12:51:38;34.20;73.50
12039;DHT22;6080;48.818;9.526;2022-10-16T12:54:28;33.70;73.50
12039;DHT22;6080;48.818;9.526;2022-10-16T12:57:03;34.10;72.70
12039;DHT22;6080;48.818;9.526;2022-10-16T12:59:44;33.70;70.00
12039;DHT22;6080;48.818;9.526;2022-10-16T13:08:04;35.20;67.90
12039;DHT22;6080;48.818;9.526;2022-10-16T13:13:44;32.50;74.50
12039;DHT22;6080;48.818;9.526;2022-10-16T13:21:48;28.30;82.80
12039;DHT22;6080;48.818;9.526;2022-10-16T13:24:55;27.90;83.20
12039;DHT22;6080;48.818;9.526;2022-10-16T13:27:35;27.50;85.20
12039;DHT22;6080;48.818;9.526;2022-10-16T13:30:18;27.20;86.70
12039;DHT22;6080;48.818;9.526;2022-10-16T13:32:46;26.80;90.60
12039;DHT22;6080;48.818;9.526;2022-10-16T13:35:27;26.70;92.20
12039;DHT22;6080;48.818;9.526;2022-10-16T13:38:26;26.60;93.70
12039;DHT22;6080;48.818;9.526;2022-10-16T13:40:59;26.50;92.50
12039;DHT22;6080;48.818;9.526;2022-10-16T13:43:40;26.70;92.10
12039;DHT22;6080;48.818;9.526;2022-10-16T13:46:14;26.80;91.70
12039;DHT22;6080;48.818;9.526;2022-10-16T13:48:40;26.50;92.40
12039;DHT22;6080;48.818;9.526;2022-10-16T13:51:16;26.40;92.80
12039;DHT22;6080;48.818;9.526;2022-10-16T13:53:43;26.40;92.40
12039;DHT22;6080;48.818;9.526;2022-10-16T13:56:17;26.40;91.70
12039;DHT22;6080;48.818;9.526;2022-10-16T13:58:44;26.30;91.60
12039;DHT22;6080;48.818;9.526;2022-10-16T14:04:07;25.90;92.90
12039;DHT22;6080;48.818;9.526;2022-10-16T14:06:35;25.60;92.90
12039;DHT22;6080;48.818;9.526;2022-10-16T14:09:06;25.80;91.90
12039;DHT22;6080;48.818;9.526;2022-10-16T14:11:34;26.00;91.90
12039;DHT22;6080;48.818;9.526;2022-10-16T14:14:02;26.00;92.10
12039;DHT22;6080;48.818;9.526;2022-10-16T14:16:30;26.00;93.00
12039;DHT22;6080;48.818;9.526;2022-10-16T14:19:04;25.70;93.00
12039;DHT22;6080;48.818;9.526;2022-10-16T14:21:33;25.50;93.20
12039;DHT22;6080;48.818;9.526;2022-10-16T14:24:11;25.30;93.90
12039;DHT22;6080;48.818;9.526;2022-10-16T14:26:44;25.20;94.30
12039;DHT22;6080;48.818;9.526;2022-10-16T14:29:17;24.90;94.80
12039;DHT22;6080;48.818;9.526;2022-10-16T14:32:00;24.80;94.90
12039;DHT22;6080;48.818;9.526;2022-10-16T14:34:35;24.70;94.60
12039;DHT22;6080;48.818;9.526;2022-10-16T14:37:26;24.70;95.00
12039;DHT22;6080;48.818;9.526;2022-10-16T14:39:53;24.70;95.50
12039;DHT22;6080;48.818;9.526;2022-10-16T14:42:21;24.70;95.80
12039;DHT22;6080;48.818;9.526;2022-10-16T14:44:50;24.60;96.10
12039;DHT22;6080;48.818;9.526;2022-10-16T14:47:22;24.60;95.90
12039;DHT22;6080;48.818;9.526;2022-10-16T14:49:51;24.60;96.80
12039;DHT22;6080;48.818;9.526;2022-10-16T14:52:17;24.60;96.90
12039;DHT22;6080;48.818;9.526;2022-10-16T14:54:43;24.60;96.90
12039;DHT22;6080;48.818;9.526;2022-10-16T14:57:20;24.60;97.20
12039;DHT22;6080;48.818;9.526;2022-10-16T14:59:47;24.60;97.70
12039;DHT22;6080;48.818;9.526;2022-10-16T15:02:31;24.60;98.50
12039;DHT22;6080;48.818;9.526;2022-10-16T15:04:58;24.50;99.90
12039;DHT22;6080;48.818;9.526;2022-10-16T15:07:27;24.40;99.90
12039;DHT22;6080;48.818;9.526;2022-10-16T15:09:52;24.20;99.90
12039;DHT22;6080;48.818;9.526;2022-10-16T15:12:19;23.80;99.90
12039;DHT22;6080;48.818;9.526;2022-10-16T15:14:44;23.60;99.90
12039;DHT22;6080;48.818;9.526;2022-10-16T15:17:11;23.50;99.90
12039;DHT22;6080;48.818;9.526;2022-10-16T15:19:40;23.40;99.90
12039;DHT22;6080;48.818;9.526;2022-10-16T15:22:06;23.30;99.90
12039;DHT22;6080;48.818;9.526;2022-10-16T15:24:31;23.00;99.90
12039;DHT22;6080;48.818;9.526;2022-10-16T15:26:57;22.80;99.90
12039;DHT22;6080;48.818;9.526;2022-10-16T15:29:23;22.70;99.90
12039;DHT22;6080;48.818;9.526;2022-10-16T15:31:49;22.60;99.90
12039;DHT22;6080;48.818;9.526;2022-10-16T15:34:16;22.50;99.90
12039;DHT22;6080;48.818;9.526;2022-10-16T15:36:43;22.50;99.90
12039;DHT22;6080;48.818;9.526;2022-10-16T15:39:15;22.50;99.90
12039;DHT22;6080;48.818;9.526;2022-10-16T15:41:42;22.30;99.90
12039;DHT22;6080;48.818;9.526;2022-10-16T15:44:08;22.20;99.90
12039;DHT22;6080;48.818;9.526;2022-10-16T15:46:34;22.10;99.90
12039;DHT22;6080;48.818;9.526;2022-10-16T15:49:01;21.90;99.90
12039;DHT22;6080;48.818;9.526;2022-10-16T15:51:27;21.80;99.90
12039;DHT22;6080;48.818;9.526;2022-10-16T15:53:56;21.80;99.90
12039;DHT22;6080;48.818;9.526;2022-10-16T15:56:22;21.70;99.90
12039;DHT22;6080;48.818;9.526;2022-10-16T15:58:54;21.60;99.90
12039;DHT22;6080;48.818;9.526;2022-10-16T16:01:20;21.50;99.90
12039;DHT22;6080;48.818;9.526;2022-10-16T16:03:46;21.40;99.90
12039;DHT22;6080;48.818;9.526;2022-10-16T16:06:13;21.20;99.90
12039;DHT22;6080;48.818;9.526;2022-10-16T16:08:39;21.10;99.90
12039;DHT22;6080;48.818;9.526;2022-10-16T16:11:13;21.10;99.90
12039;DHT22;6080;48.818;9.526;2022-10-16T16:13:39;20.90;99.90
12039;DHT22;6080;48.818;9.526;2022-10-16T16:16:10;20.90;99.90
12039;DHT22;6080;48.818;9.526;2022-10-16T16:18:36;20.80;99.90
12039;DHT22;6080;48.818;9.526;2022-10-16T16:21:03;20.70;99.90
12039;DHT22;6080;48.818;9.526;2022-10-16T16:23:29;20.70;99.90
12039;DHT22;6080;48.818;9.526;2022-10-16T16:26:10;20.60;99.90
12039;DHT22;6080;48.818;9.526;2022-10-16T16:28:37;20.60;99.90
12039;DHT22;6080;48.818;9.526;2022-10-16T16:31:03;20.50;99.90
12039;DHT22;6080;48.818;9.526;2022-10-16T16:33:30;20.40;99.90
12039;DHT22;6080;48.818;9.526;2022-10-16T16:36:03;20.40;99.90
12039;DHT22;6080;48.818;9.526;2022-10-16T16:38:29;20.30;99.90
12039;DHT22;6080;48.818;9.526;2022-10-16T16:40:55;20.10;99.90
12039;DHT22;6080;48.818;9.526;2022-10-16T16:43:26;20.00;99.90
12039;DHT22;6080;48.818;9.526;2022-10-16T16:45:53;19.90;99.90
12039;DHT22;6080;48.818;9.526;2022-10-16T16:48:19;19.90;99.90
12039;DHT22;6080;48.818;9.526;2022-10-16T16:50:45;19.70;99.90
12039;DHT22;6080;48.818;9.526;2022-10-16T16:53:11;19.70;99.90
12039;DHT22;6080;48.818;9.526;2022-10-16T16:55:36;19.60;99.90
12039;DHT22;6080;48.818;9.526;2022-10-16T16:58:02;19.40;99.90
12039;DHT22;6080;48.818;9.526;2022-10-16T17:00:29;19.20;99.90
12039;DHT22;6080;48.818;9.526;2022-10-16T17:02:56;19.00;99.90
12039;DHT22;6080;48.818;9.526;2022-10-16T17:05:22;18.90;99.90
12039;DHT22;6080;48.818;9.526;2022-10-16T17:07:48;18.80;99.90
12039;DHT22;6080;48.818;9.526;2022-10-16T17:10:14;18.80;99.90
12039;DHT22;6080;48.818;9.526;2022-10-16T17:12:40;18.70;99.90
12039;DHT22;6080;48.818;9.526;2022-10-16T17:15:06;18.70;99.90
12039;DHT22;6080;48.818;9.526;2022-10-16T17:17:32;18.70;99.90
12039;DHT22;6080;48.818;9.526;2022-10-16T17:19:58;18.70;99.90
12039;DHT22;6080;48.818;9.526;2022-10-16T17:22:24;18.60;99.90
12039;DHT22;6080;48.818;9.526;2022-10-16T17:24:50;18.50;99.90
12039;DHT22;6080;48.818;9.526;2022-10-16T17:27:17;18.40;99.90
12039;DHT22;6080;48.818;9.526;2022-10-16T17:29:44;18.40;99.90
12039;DHT22;6080;48.818;9.526;2022-10-16T17:32:09;18.30;99.90